sensor_id;sensor_type;location;lat;lon;timestamp;pressure;altitude;pressure_sealevel;temperature;humidity
967;BME280;56108;48.730;9.304;2022-10-22T00:01:17;97318.38;;;12.26;100.00
967;BME280;56108;48.730;9.304;2022-10-22T00:03:28;97321.66;;;12.19;100.00
967;BME280;56108;48.730;9.304;2022-10-22T00:05:36;97327.38;;;12.14;100.00
967;BME280;56108;48.730;9.304;2022-10-22T00:07:47;97314.28;;;12.11;100.00
967;BME280;56108;48.730;9.304;2022-10-22T00:09:55;97314.28;;;12.11;100.00
967;BME280;56108;48.730;9.304;2022-10-22T00:12:06;97312.19;;;12.15;100.00
967;BME280;56108;48.730;9.304;2022-10-22T00:14:14;97305.53;;;12.09;100.00
967;BME280;56108;48.730;9.304;2022-10-22T00:16:22;97307.88;;;12.02;100.00
967;BME280;56108;48.730;9.304;2022-10-22T00:18:30;97305.81;;;12.06;100.00
967;BME280;56108;48.730;9.304;2022-10-22T00:20:38;97310.75;;;11.99;100.00
967;BME280;56108;48.730;9.304;2022-10-22T00:22:49;97303.25;;;11.93;100.00
967;BME280;56108;48.730;9.304;2022-10-22T00:24:57;97301.56;;;11.92;100.00
967;BME280;56108;48.730;9.304;2022-10-22T00:27:05;97304.94;;;11.94;100.00
967;BME280;56108;48.730;9.304;2022-10-22T00:29:14;97303.53;;;11.90;100.00
967;BME280;56108;48.730;9.304;2022-10-22T00:31:22;97299.25;;;11.88;100.00
967;BME280;56108;48.730;9.304;2022-10-22T00:33:30;97298.19;;;11.90;100.00
967;BME280;56108;48.730;9.304;2022-10-22T00:35:39;97295.53;;;11.90;100.00
967;BME280;56108;48.730;9.304;2022-10-22T00:37:50;97295.63;;;11.89;100.00
967;BME280;56108;48.730;9.304;2022-10-22T00:39:58;97291.38;;;11.86;100.00
967;BME280;56108;48.730;9.304;2022-10-22T00:42:06;97283.13;;;11.89;100.00
967;BME280;56108;48.730;9.304;2022-10-22T00:46:53;97278.28;;;11.83;100.00
967;BME280;56108;48.730;9.304;2022-10-22T00:49:02;97265.09;;;11.82;100.00
967;BME280;56108;48.730;9.304;2022-10-22T00:51:11;97270.78;;;11.88;100.00
967;BME280;56108;48.730;9.304;2022-10-22T00:53:24;97269.22;;;11.86;100.00
967;BME280;56108;48.730;9.304;2022-10-22T00:55:34;97265.94;;;11.82;100.00
967;BME280;56108;48.730;9.304;2022-10-22T00:57:42;97263.75;;;11.87;100.00
967;BME280;56108;48.730;9.304;2022-10-22T00:59:50;97272.47;;;11.89;100.00
967;BME280;56108;48.730;9.304;2022-10-22T01:01:58;97264.38;;;11.91;100.00
967;BME280;56108;48.730;9.304;2022-10-22T01:04:06;97268.72;;;11.92;100.00
967;BME280;56108;48.730;9.304;2022-10-22T01:06:21;97274.19;;;11.90;100.00
967;BME280;56108;48.730;9.304;2022-10-22T01:08:39;97280.22;;;11.92;100.00
967;BME280;56108;48.730;9.304;2022-10-22T01:10:58;97271.25;;;11.93;100.00
967;BME280;56108;48.730;9.304;2022-10-22T01:13:18;97278.19;;;11.96;100.00
967;BME280;56108;48.730;9.304;2022-10-22T01:15:34;97276.34;;;11.96;100.00
967;BME280;56108;48.730;9.304;2022-10-22T01:17:50;97282.78;;;11.94;100.00
967;BME280;56108;48.730;9.304;2022-10-22T01:20:09;97290.06;;;11.92;100.00
967;BME280;56108;48.730;9.304;2022-10-22T01:22:25;97274.06;;;11.92;100.00
967;BME280;56108;48.730;9.304;2022-10-22T01:24:58;97276.34;;;11.96;100.00
967;BME280;56108;48.730;9.304;2022-10-22T01:27:22;97271.53;;;11.90;100.00
967;BME280;56108;48.730;9.304;2022-10-22T01:29:38;97260.34;;;11.96;100.00
967;BME280;56108;48.730;9.304;2022-10-22T01:31:51;97264.38;;;11.91;100.00
967;BME280;56108;48.730;9.304;2022-10-22T01:34:02;97268.09;;;11.88;100.00
967;BME280;56108;48.730;9.304;2022-10-22T01:36:11;97264.22;;;11.92;100.00
967;BME280;56108;48.730;9.304;2022-10-22T01:38:22;97261.81;;;11.89;100.00
967;BME280;56108;48.730;9.304;2022-10-22T01:40:31;97264.81;;;11.85;100.00
967;BME280;56108;48.730;9.304;2022-10-22T01:42:41;97254.91;;;11.87;100.00
967;BME280;56108;48.730;9.304;2022-10-22T01:44:51;97248.97;;;11.83;100.00
967;BME280;56108;48.730;9.304;2022-10-22T01:47:06;97233.31;;;11.79;100.00
967;BME280;56108;48.730;9.304;2022-10-22T01:49:20;97231.47;;;11.79;100.00
967;BME280;56108;48.730;9.304;2022-10-22T01:51:44;97227.38;;;11.75;100.00
967;BME280;56108;48.730;9.304;2022-10-22T01:53:59;97236.31;;;11.74;100.00
967;BME280;56108;48.730;9.304;2022-10-22T01:56:24;97238.06;;;11.75;100.00
967;BME280;56108;48.730;9.304;2022-10-22T01:58:40;97237.06;;;11.76;100.00
967;BME280;56108;48.730;9.304;2022-10-22T02:00:58;97242.41;;;11.76;100.00
967;BME280;56108;48.730;9.304;2022-10-22T02:03:13;97241.81;;;11.84;100.00
967;BME280;56108;48.730;9.304;2022-10-22T02:05:31;97243.25;;;11.76;100.00
967;BME280;56108;48.730;9.304;2022-10-22T02:07:46;97245.19;;;11.74;100.00
967;BME280;56108;48.730;9.304;2022-10-22T02:09:56;97251.38;;;11.75;100.00
967;BME280;56108;48.730;9.304;2022-10-22T02:12:07;97268.69;;;11.81;100.00
967;BME280;56108;48.730;9.304;2022-10-22T02:14:16;97263.72;;;11.76;100.00
967;BME280;56108;48.730;9.304;2022-10-22T02:16:32;97272.72;;;11.75;100.00
967;BME280;56108;48.730;9.304;2022-10-22T02:18:43;97278.13;;;11.73;100.00
967;BME280;56108;48.730;9.304;2022-10-22T02:20:52;97274.41;;;11.87;100.00
967;BME280;56108;48.730;9.304;2022-10-22T02:23:01;97269.19;;;11.74;100.00
967;BME280;56108;48.730;9.304;2022-10-22T02:25:10;97280.81;;;11.73;100.00
967;BME280;56108;48.730;9.304;2022-10-22T02:27:21;97303.25;;;11.82;100.00
967;BME280;56108;48.730;9.304;2022-10-22T02:29:35;97300.44;;;11.72;100.00
967;BME280;56108;48.730;9.304;2022-10-22T02:31:49;97284.81;;;11.68;100.00
967;BME280;56108;48.730;9.304;2022-10-22T02:34:03;97283.38;;;11.75;100.00
967;BME280;56108;48.730;9.304;2022-10-22T02:36:14;97276.81;;;11.68;100.00
967;BME280;56108;48.730;9.304;2022-10-22T02:38:24;97288.94;;;11.61;100.00
967;BME280;56108;48.730;9.304;2022-10-22T02:40:32;97281.91;;;11.60;100.00
967;BME280;56108;48.730;9.304;2022-10-22T02:42:41;97282.50;;;11.63;100.00
967;BME280;56108;48.730;9.304;2022-10-22T02:44:49;97286.97;;;11.63;100.00
967;BME280;56108;48.730;9.304;2022-10-22T02:47:00;97292.94;;;11.55;100.00
967;BME280;56108;48.730;9.304;2022-10-22T02:49:08;97287.59;;;11.66;100.00
967;BME280;56108;48.730;9.304;2022-10-22T02:51:16;97300.09;;;11.66;100.00
967;BME280;56108;48.730;9.304;2022-10-22T02:53:24;97289.16;;;11.69;100.00
967;BME280;56108;48.730;9.304;2022-10-22T02:55:32;97291.25;;;11.65;100.00
967;BME280;56108;48.730;9.304;2022-10-22T02:57:40;97281.28;;;11.56;100.00
967;BME280;56108;48.730;9.304;2022-10-22T02:59:48;97287.81;;;11.52;100.00
967;BME280;56108;48.730;9.304;2022-10-22T03:01:56;97293.03;;;11.54;100.00
967;BME280;56108;48.730;9.304;2022-10-22T03:04:07;97292.31;;;11.52;100.00
967;BME280;56108;48.730;9.304;2022-10-22T03:06:15;97303.22;;;11.48;100.00
967;BME280;56108;48.730;9.304;2022-10-22T03:08:24;97311.22;;;11.48;100.00
967;BME280;56108;48.730;9.304;2022-10-22T03:10:32;97298.34;;;11.54;100.00
967;BME280;56108;48.730;9.304;2022-10-22T03:12:40;97298.25;;;11.55;100.00
967;BME280;56108;48.730;9.304;2022-10-22T03:14:48;97298.25;;;11.55;100.00
967;BME280;56108;48.730;9.304;2022-10-22T03:16:56;97296.78;;;11.51;100.00
967;BME280;56108;48.730;9.304;2022-10-22T03:19:06;97282.38;;;11.54;100.00
967;BME280;56108;48.730;9.304;2022-10-22T03:21:22;97282.00;;;11.47;100.00
967;BME280;56108;48.730;9.304;2022-10-22T03:23:31;97275.97;;;11.45;100.00
967;BME280;56108;48.730;9.304;2022-10-22T03:25:41;97272.69;;;11.41;100.00
967;BME280;56108;48.730;9.304;2022-10-22T03:27:51;97263.47;;;11.45;100.00
967;BME280;56108;48.730;9.304;2022-10-22T03:30:00;97261.53;;;11.47;100.00
967;BME280;56108;48.730;9.304;2022-10-22T03:32:08;97255.97;;;11.50;100.00
967;BME280;56108;48.730;9.304;2022-10-22T03:34:19;97257.31;;;11.56;100.00
967;BME280;56108;48.730;9.304;2022-10-22T03:36:27;97255.97;;;11.50;100.00
967;BME280;56108;48.730;9.304;2022-10-22T03:38:38;97246.16;;;11.51;100.00
967;BME280;56108;48.730;9.304;2022-10-22T03:40:47;97240.00;;;11.50;100.00
967;BME280;56108;48.730;9.304;2022-10-22T03:42:55;97241.69;;;11.52;100.00
967;BME280;56108;48.730;9.304;2022-10-22T03:45:05;97241.44;;;11.55;100.00
967;BME280;56108;48.730;9.304;2022-10-22T03:47:13;97245.53;;;11.47;100.00
967;BME280;56108;48.730;9.304;2022-10-22T03:49:23;97252.94;;;11.44;100.00
967;BME280;56108;48.730;9.304;2022-10-22T03:51:31;97259.00;;;11.46;100.00
967;BME280;56108;48.730;9.304;2022-10-22T03:53:39;97258.38;;;11.54;100.00
967;BME280;56108;48.730;9.304;2022-10-22T03:55:47;97260.81;;;11.57;100.00
967;BME280;56108;48.730;9.304;2022-10-22T03:57:55;97264.59;;;11.54;100.00
967;BME280;56108;48.730;9.304;2022-10-22T04:00:05;97266.16;;;11.57;100.00
967;BME280;56108;48.730;9.304;2022-10-22T04:02:14;97281.16;;;11.58;100.00
967;BME280;56108;48.730;9.304;2022-10-22T04:04:26;97272.44;;;11.56;100.00
967;BME280;56108;48.730;9.304;2022-10-22T04:06:33;97258.66;;;11.50;100.00
967;BME280;56108;48.730;9.304;2022-10-22T04:08:43;97252.47;;;11.50;100.00
967;BME280;56108;48.730;9.304;2022-10-22T04:10:51;97258.16;;;11.45;100.00
967;BME280;56108;48.730;9.304;2022-10-22T04:12:59;97258.28;;;11.44;100.00
967;BME280;56108;48.730;9.304;2022-10-22T04:15:08;97261.31;;;11.39;100.00
967;BME280;56108;48.730;9.304;2022-10-22T04:17:16;97258.88;;;11.36;100.00
967;BME280;56108;48.730;9.304;2022-10-22T04:19:27;97259.72;;;11.37;100.00
967;BME280;56108;48.730;9.304;2022-10-22T04:21:35;97266.25;;;11.33;100.00
967;BME280;56108;48.730;9.304;2022-10-22T04:23:47;97269.78;;;11.33;100.00
967;BME280;56108;48.730;9.304;2022-10-22T04:25:59;97278.97;;;11.29;100.00
967;BME280;56108;48.730;9.304;2022-10-22T04:28:08;97290.94;;;11.23;100.00
967;BME280;56108;48.730;9.304;2022-10-22T04:30:16;97287.88;;;11.17;100.00
967;BME280;56108;48.730;9.304;2022-10-22T04:32:24;97291.78;;;11.24;100.00
967;BME280;56108;48.730;9.304;2022-10-22T04:34:36;97294.47;;;11.35;100.00
967;BME280;56108;48.730;9.304;2022-10-22T04:36:44;97293.50;;;11.36;100.00
967;BME280;56108;48.730;9.304;2022-10-22T04:38:55;97290.72;;;11.38;100.00
967;BME280;56108;48.730;9.304;2022-10-22T04:41:08;97270.63;;;11.34;100.00
967;BME280;56108;48.730;9.304;2022-10-22T04:43:16;97274.63;;;11.39;100.00
967;BME280;56108;48.730;9.304;2022-10-22T04:45:24;97280.81;;;11.40;100.00
967;BME280;56108;48.730;9.304;2022-10-22T04:47:32;97284.88;;;11.33;100.00
967;BME280;56108;48.730;9.304;2022-10-22T04:49:43;97287.56;;;11.33;100.00
967;BME280;56108;48.730;9.304;2022-10-22T04:51:51;97291.19;;;11.32;100.00
967;BME280;56108;48.730;9.304;2022-10-22T04:54:00;97292.88;;;11.21;100.00
967;BME280;56108;48.730;9.304;2022-10-22T04:56:11;97289.34;;;11.21;100.00
967;BME280;56108;48.730;9.304;2022-10-22T04:58:20;97291.44;;;11.17;100.00
967;BME280;56108;48.730;9.304;2022-10-22T05:00:28;97298.19;;;11.21;100.00
967;BME280;56108;48.730;9.304;2022-10-22T05:02:36;97294.59;;;11.34;100.00
967;BME280;56108;48.730;9.304;2022-10-22T05:04:51;97292.63;;;11.24;100.00
967;BME280;56108;48.730;9.304;2022-10-22T05:06:59;97306.94;;;11.23;100.00
967;BME280;56108;48.730;9.304;2022-10-22T05:09:11;97310.31;;;11.26;100.00
967;BME280;56108;48.730;9.304;2022-10-22T05:11:23;97320.75;;;11.29;100.00
967;BME280;56108;48.730;9.304;2022-10-22T05:13:32;97322.81;;;11.36;100.00
967;BME280;56108;48.730;9.304;2022-10-22T05:15:40;97322.19;;;11.33;100.00
967;BME280;56108;48.730;9.304;2022-10-22T05:17:48;97319.28;;;11.24;100.00
967;BME280;56108;48.730;9.304;2022-10-22T05:19:59;97316.63;;;11.24;100.00
967;BME280;56108;48.730;9.304;2022-10-22T05:22:07;97310.78;;;11.19;100.00
967;BME280;56108;48.730;9.304;2022-10-22T05:24:17;97319.13;;;11.15;100.00
967;BME280;56108;48.730;9.304;2022-10-22T05:26:26;97326.63;;;11.10;100.00
967;BME280;56108;48.730;9.304;2022-10-22T05:28:34;97325.16;;;11.06;100.00
967;BME280;56108;48.730;9.304;2022-10-22T05:30:51;97334.84;;;11.07;100.00
967;BME280;56108;48.730;9.304;2022-10-22T05:33:00;97342.72;;;11.08;100.00
967;BME280;56108;48.730;9.304;2022-10-22T05:35:11;97342.47;;;11.11;100.00
967;BME280;56108;48.730;9.304;2022-10-22T05:37:19;97351.56;;;11.09;100.00
967;BME280;56108;48.730;9.304;2022-10-22T05:39:27;97356.25;;;11.05;100.00
967;BME280;56108;48.730;9.304;2022-10-22T05:41:36;97363.78;;;11.11;100.00
967;BME280;56108;48.730;9.304;2022-10-22T05:43:44;97365.59;;;11.11;100.00
967;BME280;56108;48.730;9.304;2022-10-22T05:45:52;97369.59;;;11.16;100.00
967;BME280;56108;48.730;9.304;2022-10-22T05:48:00;97381.97;;;11.17;100.00
967;BME280;56108;48.730;9.304;2022-10-22T05:50:11;97391.75;;;11.17;100.00
967;BME280;56108;48.730;9.304;2022-10-22T05:52:19;97407.16;;;11.13;100.00
967;BME280;56108;48.730;9.304;2022-10-22T05:54:27;97411.03;;;11.20;100.00
967;BME280;56108;48.730;9.304;2022-10-22T05:56:35;97398.91;;;11.16;100.00
967;BME280;56108;48.730;9.304;2022-10-22T05:58:43;97412.72;;;11.21;100.00
967;BME280;56108;48.730;9.304;2022-10-22T06:00:52;97419.19;;;11.30;100.00
967;BME280;56108;48.730;9.304;2022-10-22T06:03:00;97434.25;;;11.42;100.00
967;BME280;56108;48.730;9.304;2022-10-22T06:05:11;97429.53;;;11.46;100.00
967;BME280;56108;48.730;9.304;2022-10-22T06:07:19;97433.34;;;11.55;100.00
967;BME280;56108;48.730;9.304;2022-10-22T06:09:29;97436.94;;;11.54;100.00
967;BME280;56108;48.730;9.304;2022-10-22T06:11:38;97447.72;;;11.52;100.00
967;BME280;56108;48.730;9.304;2022-10-22T06:13:47;97443.06;;;11.67;100.00
967;BME280;56108;48.730;9.304;2022-10-22T06:15:55;97441.47;;;11.64;100.00
967;BME280;56108;48.730;9.304;2022-10-22T06:18:05;97456.38;;;11.67;100.00
967;BME280;56108;48.730;9.304;2022-10-22T06:20:16;97455.66;;;11.65;100.00
967;BME280;56108;48.730;9.304;2022-10-22T06:22:24;97466.19;;;11.66;100.00
967;BME280;56108;48.730;9.304;2022-10-22T06:24:32;97473.47;;;11.64;100.00
967;BME280;56108;48.730;9.304;2022-10-22T06:26:41;97466.31;;;11.65;100.00
967;BME280;56108;48.730;9.304;2022-10-22T06:28:49;97468.22;;;11.63;100.00
967;BME280;56108;48.730;9.304;2022-10-22T06:30:58;97478.53;;;11.67;100.00
967;BME280;56108;48.730;9.304;2022-10-22T06:33:07;97484.25;;;11.74;100.00
967;BME280;56108;48.730;9.304;2022-10-22T06:35:17;97493.06;;;11.63;100.00
967;BME280;56108;48.730;9.304;2022-10-22T06:37:25;97506.66;;;11.60;100.00
967;BME280;56108;48.730;9.304;2022-10-22T06:39:34;97493.81;;;11.65;100.00
967;BME280;56108;48.730;9.304;2022-10-22T06:41:42;97500.13;;;11.64;100.00
967;BME280;56108;48.730;9.304;2022-10-22T06:43:53;97498.06;;;11.68;100.00
967;BME280;56108;48.730;9.304;2022-10-22T06:46:04;97514.31;;;11.65;100.00
967;BME280;56108;48.730;9.304;2022-10-22T06:48:13;97501.91;;;11.64;100.00
967;BME280;56108;48.730;9.304;2022-10-22T06:50:23;97507.25;;;11.64;100.00
967;BME280;56108;48.730;9.304;2022-10-22T06:52:31;97507.75;;;11.69;100.00
967;BME280;56108;48.730;9.304;2022-10-22T06:54:39;97510.69;;;11.77;100.00
967;BME280;56108;48.730;9.304;2022-10-22T06:56:47;97511.41;;;11.79;100.00
967;BME280;56108;48.730;9.304;2022-10-22T06:58:56;97518.25;;;11.83;100.00
967;BME280;56108;48.730;9.304;2022-10-22T07:01:07;97521.78;;;11.84;100.00
967;BME280;56108;48.730;9.304;2022-10-22T07:03:15;97527.84;;;11.86;100.00
967;BME280;56108;48.730;9.304;2022-10-22T07:05:26;97528.09;;;11.94;100.00
967;BME280;56108;48.730;9.304;2022-10-22T07:07:34;97527.63;;;12.00;100.00
967;BME280;56108;48.730;9.304;2022-10-22T07:09:42;97534.91;;;11.98;100.00
967;BME280;56108;48.730;9.304;2022-10-22T07:11:55;97536.75;;;12.09;100.00
967;BME280;56108;48.730;9.304;2022-10-22T07:14:03;97536.78;;;12.20;100.00
967;BME280;56108;48.730;9.304;2022-10-22T07:16:12;97538.03;;;12.27;100.00
967;BME280;56108;48.730;9.304;2022-10-22T07:18:20;97553.09;;;12.39;100.00
967;BME280;56108;48.730;9.304;2022-10-22T07:20:31;97557.16;;;12.21;100.00
967;BME280;56108;48.730;9.304;2022-10-22T07:22:39;97554.88;;;12.27;100.00
967;BME280;56108;48.730;9.304;2022-10-22T07:24:47;97567.63;;;12.35;100.00
967;BME280;56108;48.730;9.304;2022-10-22T07:26:55;97571.34;;;12.21;100.00
967;BME280;56108;48.730;9.304;2022-10-22T07:29:04;97576.97;;;12.30;100.00
967;BME280;56108;48.730;9.304;2022-10-22T07:31:14;97585.81;;;12.30;100.00
967;BME280;56108;48.730;9.304;2022-10-22T07:33:22;97589.34;;;12.42;100.00
967;BME280;56108;48.730;9.304;2022-10-22T07:35:35;97580.25;;;12.33;100.00
967;BME280;56108;48.730;9.304;2022-10-22T07:37:43;97584.97;;;12.41;100.00
967;BME280;56108;48.730;9.304;2022-10-22T07:39:51;97589.47;;;12.40;100.00
967;BME280;56108;48.730;9.304;2022-10-22T07:41:59;97585.72;;;12.43;100.00
967;BME280;56108;48.730;9.304;2022-10-22T07:44:06;97583.19;;;12.52;100.00
967;BME280;56108;48.730;9.304;2022-10-22T07:46:14;97592.91;;;12.65;100.00
967;BME280;56108;48.730;9.304;2022-10-22T07:48:22;97586.63;;;12.77;100.00
967;BME280;56108;48.730;9.304;2022-10-22T07:50:33;97589.78;;;12.82;100.00
967;BME280;56108;48.730;9.304;2022-10-22T07:52:41;97596.56;;;12.75;100.00
967;BME280;56108;48.730;9.304;2022-10-22T07:54:49;97594.50;;;12.67;100.00
967;BME280;56108;48.730;9.304;2022-10-22T07:56:57;97599.00;;;12.89;100.00
967;BME280;56108;48.730;9.304;2022-10-22T07:59:05;97603.75;;;13.08;100.00
967;BME280;56108;48.730;9.304;2022-10-22T08:01:13;97620.03;;;13.16;100.00
967;BME280;56108;48.730;9.304;2022-10-22T08:03:21;97625.84;;;13.10;100.00
967;BME280;56108;48.730;9.304;2022-10-22T08:05:29;97635.94;;;13.18;100.00
967;BME280;56108;48.730;9.304;2022-10-22T08:07:39;97639.25;;;13.21;100.00
967;BME280;56108;48.730;9.304;2022-10-22T08:09:47;97644.34;;;13.24;100.00
967;BME280;56108;48.730;9.304;2022-10-22T08:11:55;97645.44;;;13.33;100.00
967;BME280;56108;48.730;9.304;2022-10-22T08:14:03;97650.50;;;13.36;100.00
967;BME280;56108;48.730;9.304;2022-10-22T08:16:12;97653.03;;;13.71;100.00
967;BME280;56108;48.730;9.304;2022-10-22T08:18:20;97661.56;;;13.54;100.00
967;BME280;56108;48.730;9.304;2022-10-22T08:20:28;97668.47;;;13.79;100.00
967;BME280;56108;48.730;9.304;2022-10-22T08:22:39;97669.25;;;14.02;100.00
967;BME280;56108;48.730;9.304;2022-10-22T08:24:47;97677.72;;;14.18;100.00
967;BME280;56108;48.730;9.304;2022-10-22T08:26:55;97678.50;;;14.41;100.00
967;BME280;56108;48.730;9.304;2022-10-22T08:29:03;97689.66;;;14.57;100.00
967;BME280;56108;48.730;9.304;2022-10-22T08:31:11;97695.94;;;14.68;100.00
967;BME280;56108;48.730;9.304;2022-10-22T08:33:19;97694.16;;;14.78;100.00
967;BME280;56108;48.730;9.304;2022-10-22T08:35:27;97694.66;;;14.51;100.00
967;BME280;56108;48.730;9.304;2022-10-22T08:37:36;97688.91;;;14.55;100.00
967;BME280;56108;48.730;9.304;2022-10-22T08:39:47;97690.22;;;14.82;100.00
967;BME280;56108;48.730;9.304;2022-10-22T08:42:03;97698.72;;;14.66;100.00
967;BME280;56108;48.730;9.304;2022-10-22T08:44:31;97696.16;;;14.65;100.00
967;BME280;56108;48.730;9.304;2022-10-22T08:47:15;97686.84;;;14.80;100.00
967;BME280;56108;48.730;9.304;2022-10-22T08:49:30;97695.66;;;14.71;100.00
967;BME280;56108;48.730;9.304;2022-10-22T08:51:44;97688.13;;;15.06;100.00
967;BME280;56108;48.730;9.304;2022-10-22T08:54:13;97701.72;;;15.35;100.00
967;BME280;56108;48.730;9.304;2022-10-22T08:56:28;97699.22;;;15.84;100.00
967;BME280;56108;48.730;9.304;2022-10-22T08:58:40;97715.03;;;16.66;94.44
967;BME280;56108;48.730;9.304;2022-10-22T09:00:54;97716.31;;;16.91;91.14
967;BME280;56108;48.730;9.304;2022-10-22T09:03:22;97711.09;;;18.38;84.08
967;BME280;56108;48.730;9.304;2022-10-22T09:05:42;97713.00;;;19.69;74.70
967;BME280;56108;48.730;9.304;2022-10-22T09:07:54;97731.13;;;20.86;67.41
967;BME280;56108;48.730;9.304;2022-10-22T09:10:02;97735.19;;;22.03;62.62
967;BME280;56108;48.730;9.304;2022-10-22T09:12:15;97756.53;;;23.68;56.46
967;BME280;56108;48.730;9.304;2022-10-22T09:14:24;97781.25;;;24.77;52.57
967;BME280;56108;48.730;9.304;2022-10-22T09:16:38;97794.59;;;25.50;50.20
967;BME280;56108;48.730;9.304;2022-10-22T09:18:57;97802.88;;;26.20;48.49
967;BME280;56108;48.730;9.304;2022-10-22T09:21:16;97809.56;;;26.45;47.85
967;BME280;56108;48.730;9.304;2022-10-22T09:23:31;97813.28;;;27.47;46.21
967;BME280;56108;48.730;9.304;2022-10-22T09:25:44;97822.28;;;26.32;45.80
967;BME280;56108;48.730;9.304;2022-10-22T09:27:55;97817.06;;;27.66;44.31
967;BME280;56108;48.730;9.304;2022-10-22T09:30:09;97815.59;;;27.50;45.82
967;BME280;56108;48.730;9.304;2022-10-22T09:32:18;97819.78;;;27.46;44.57
967;BME280;56108;48.730;9.304;2022-10-22T09:34:27;97824.41;;;28.51;43.16
967;BME280;56108;48.730;9.304;2022-10-22T09:36:36;97828.88;;;28.06;43.05
967;BME280;56108;48.730;9.304;2022-10-22T09:38:47;97833.94;;;28.16;43.47
967;BME280;56108;48.730;9.304;2022-10-22T09:40:58;97822.16;;;28.35;42.56
967;BME280;56108;48.730;9.304;2022-10-22T09:43:11;97835.44;;;28.90;40.62
967;BME280;56108;48.730;9.304;2022-10-22T09:45:23;97827.00;;;28.98;41.35
967;BME280;56108;48.730;9.304;2022-10-22T09:47:33;97834.16;;;28.99;41.79
967;BME280;56108;48.730;9.304;2022-10-22T09:50:04;97835.44;;;28.90;41.09
967;BME280;56108;48.730;9.304;2022-10-22T09:52:25;97836.97;;;28.66;41.72
967;BME280;56108;48.730;9.304;2022-10-22T09:54:38;97834.56;;;28.04;41.87
967;BME280;56108;48.730;9.304;2022-10-22T09:56:51;97825.41;;;27.18;43.54
967;BME280;56108;48.730;9.304;2022-10-22T09:59:02;97823.31;;;27.20;44.41
967;BME280;56108;48.730;9.304;2022-10-22T10:01:26;97817.88;;;27.33;43.96
967;BME280;56108;48.730;9.304;2022-10-22T10:03:34;97836.28;;;27.72;43.43
967;BME280;56108;48.730;9.304;2022-10-22T10:05:46;97828.00;;;27.59;44.18
967;BME280;56108;48.730;9.304;2022-10-22T10:07:55;97826.91;;;26.31;45.46
967;BME280;56108;48.730;9.304;2022-10-22T10:10:16;97822.53;;;26.78;45.48
967;BME280;56108;48.730;9.304;2022-10-22T10:12:34;97828.16;;;26.35;45.28
967;BME280;56108;48.730;9.304;2022-10-22T10:14:59;97817.50;;;26.88;45.86
967;BME280;56108;48.730;9.304;2022-10-22T10:17:22;97827.66;;;26.18;45.99
967;BME280;56108;48.730;9.304;2022-10-22T10:19:43;97817.75;;;25.18;48.46
967;BME280;56108;48.730;9.304;2022-10-22T10:22:04;97821.59;;;25.73;48.04
967;BME280;56108;48.730;9.304;2022-10-22T10:24:23;97827.38;;;26.07;46.81
967;BME280;56108;48.730;9.304;2022-10-22T10:26:39;97820.16;;;25.28;48.25
967;BME280;56108;48.730;9.304;2022-10-22T10:29:03;97816.69;;;25.62;48.38
967;BME280;56108;48.730;9.304;2022-10-22T10:31:20;97818.53;;;25.34;47.88
967;BME280;56108;48.730;9.304;2022-10-22T10:33:52;97816.88;;;24.96;48.72
967;BME280;56108;48.730;9.304;2022-10-22T10:36:09;97812.91;;;24.48;50.15
967;BME280;56108;48.730;9.304;2022-10-22T10:38:34;97811.09;;;23.96;51.98
967;BME280;56108;48.730;9.304;2022-10-22T10:40:49;97800.31;;;23.04;54.45
967;BME280;56108;48.730;9.304;2022-10-22T10:43:01;97782.66;;;21.99;59.61
967;BME280;56108;48.730;9.304;2022-10-22T10:45:16;97766.94;;;20.72;65.07
967;BME280;56108;48.730;9.304;2022-10-22T10:47:58;97771.69;;;20.27;67.80
967;BME280;56108;48.730;9.304;2022-10-22T10:50:17;97780.97;;;19.91;70.35
967;BME280;56108;48.730;9.304;2022-10-22T10:52:32;97779.09;;;19.39;74.77
967;BME280;56108;48.730;9.304;2022-10-22T10:54:48;97778.88;;;19.33;74.84
967;BME280;56108;48.730;9.304;2022-10-22T10:57:02;97776.34;;;19.13;73.78
967;BME280;56108;48.730;9.304;2022-10-22T10:59:18;97773.28;;;19.08;73.78
967;BME280;56108;48.730;9.304;2022-10-22T11:01:38;97765.09;;;19.00;75.76
967;BME280;56108;48.730;9.304;2022-10-22T11:04:23;97772.97;;;18.93;77.42
967;BME280;56108;48.730;9.304;2022-10-22T11:06:38;97770.34;;;18.84;78.41
967;BME280;56108;48.730;9.304;2022-10-22T11:08:49;97768.69;;;18.55;76.13
967;BME280;56108;48.730;9.304;2022-10-22T11:11:03;97766.69;;;18.57;77.63
967;BME280;56108;48.730;9.304;2022-10-22T11:13:17;97767.63;;;18.48;74.38
967;BME280;56108;48.730;9.304;2022-10-22T11:15:30;97770.50;;;18.64;73.69
967;BME280;56108;48.730;9.304;2022-10-22T11:17:43;97770.13;;;18.77;74.50
967;BME280;56108;48.730;9.304;2022-10-22T11:19:59;97766.03;;;19.09;72.24
967;BME280;56108;48.730;9.304;2022-10-22T11:22:14;97758.34;;;19.40;74.11
967;BME280;56108;48.730;9.304;2022-10-22T11:24:36;97755.13;;;19.62;73.14
967;BME280;56108;48.730;9.304;2022-10-22T11:26:52;97763.38;;;19.87;71.14
967;BME280;56108;48.730;9.304;2022-10-22T11:29:04;97759.38;;;19.99;68.55
967;BME280;56108;48.730;9.304;2022-10-22T11:31:16;97772.41;;;19.95;65.42
967;BME280;56108;48.730;9.304;2022-10-22T11:33:28;97777.09;;;19.67;64.45
967;BME280;56108;48.730;9.304;2022-10-22T11:35:45;97769.44;;;19.37;67.51
967;BME280;56108;48.730;9.304;2022-10-22T11:37:54;97767.53;;;19.29;70.11
967;BME280;56108;48.730;9.304;2022-10-22T11:40:07;97767.78;;;19.00;72.02
967;BME280;56108;48.730;9.304;2022-10-22T11:42:22;97754.09;;;18.93;72.56
967;BME280;56108;48.730;9.304;2022-10-22T11:44:47;97763.56;;;18.97;71.04
967;BME280;56108;48.730;9.304;2022-10-22T11:47:18;97760.88;;;18.97;70.45
967;BME280;56108;48.730;9.304;2022-10-22T11:49:41;97756.09;;;19.09;68.73
967;BME280;56108;48.730;9.304;2022-10-22T11:52:05;97760.34;;;18.76;63.27